createdAt,value
2017-10-03T00:02:28.054Z,100611.23
2017-10-03T00:05:02.897Z,100610.88
2017-10-03T00:07:38.133Z,100606.31
2017-10-03T00:10:12.760Z,100624.19
2017-10-03T00:12:47.562Z,100625.16
2017-10-03T00:15:22.317Z,100618.62
2017-10-03T00:17:57.017Z,100621.20
2017-10-03T00:20:31.889Z,100627.23
2017-10-03T00:23:06.921Z,100621.52
2017-10-03T00:25:41.521Z,100621.41
2017-10-03T00:28:16.449Z,100603.17
2017-10-03T00:30:51.602Z,100599.23
2017-10-03T00:33:26.457Z,100597.96
2017-10-03T00:36:01.374Z,100592.77
2017-10-03T00:38:36.309Z,100586.36
2017-10-03T00:41:11.218Z,100577.39
2017-10-03T00:43:45.997Z,100588.09
2017-10-03T00:46:20.584Z,100588.79
2017-10-03T00:48:55.613Z,100599.09
2017-10-03T00:51:30.541Z,100613.16
2017-10-03T00:54:05.757Z,100612.43
2017-10-03T00:56:40.057Z,100606.22
2017-10-03T00:59:15.134Z,100593.50
2017-10-03T01:01:50.412Z,100587.77
2017-10-03T01:04:25.213Z,100589.19
2017-10-03T01:07:00.277Z,100586.48
2017-10-03T01:09:35.221Z,100582.02
2017-10-03T01:12:10.154Z,100584.28
2017-10-03T01:14:45.326Z,100577.50
2017-10-03T01:17:20.235Z,100582.37
2017-10-03T01:19:54.665Z,100578.02
2017-10-03T01:22:29.638Z,100578.88
2017-10-03T01:25:04.785Z,100581.50
2017-10-03T01:27:39.533Z,100593.09
2017-10-03T01:30:14.249Z,100592.81
2017-10-03T01:32:49.102Z,100593.80
2017-10-03T01:35:23.910Z,100584.70
2017-10-03T01:38:06.993Z,100580.35
2017-10-03T01:40:41.785Z,100576.56
2017-10-03T01:43:16.737Z,100577.00
2017-10-03T01:45:51.573Z,100589.56
2017-10-03T01:48:26.645Z,100582.53
2017-10-03T01:51:01.553Z,100582.29
2017-10-03T01:53:36.506Z,100589.41
2017-10-03T01:56:11.482Z,100592.48
2017-10-03T01:58:46.413Z,100598.77
2017-10-03T02:01:21.165Z,100591.51
2017-10-03T02:03:55.837Z,100592.72
2017-10-03T02:06:30.621Z,100602.32
2017-10-03T02:09:05.153Z,100601.96
2017-10-03T02:11:40.300Z,100595.36
2017-10-03T02:14:15.122Z,100592.77
2017-10-03T02:16:49.721Z,100585.64
2017-10-03T02:19:24.533Z,100592.55
2017-10-03T02:21:59.416Z,100590.47
2017-10-03T02:24:34.222Z,100591.02
2017-10-03T02:27:08.998Z,100591.41
2017-10-03T02:29:44.130Z,100597.30
2017-10-03T02:32:19.230Z,100587.28
2017-10-03T02:34:54.109Z,100575.60
2017-10-03T02:37:28.861Z,100582.84
2017-10-03T02:40:03.718Z,100594.27
2017-10-03T02:42:38.741Z,100588.90
2017-10-03T02:45:14.029Z,100589.73
2017-10-03T02:47:49.154Z,100593.21
2017-10-03T02:50:24.353Z,100599.53
2017-10-03T02:52:58.793Z,100599.75
2017-10-03T02:55:33.644Z,100608.41
2017-10-03T02:58:08.437Z,100613.45
2017-10-03T03:00:43.317Z,100608.98
2017-10-03T03:03:18.182Z,100606.40
2017-10-03T03:05:53.122Z,100605.05
2017-10-03T03:08:27.977Z,100603.77
2017-10-03T03:11:02.905Z,100598.88
2017-10-03T03:13:37.858Z,100592.41
2017-10-03T03:16:13.038Z,100599.23
2017-10-03T03:18:47.981Z,100599.72
2017-10-03T03:21:22.725Z,100601.54
2017-10-03T03:23:57.374Z,100607.82
2017-10-03T03:26:32.026Z,100609.61
2017-10-03T03:29:06.881Z,100605.05
2017-10-03T03:31:41.634Z,100610.74
2017-10-03T03:34:16.302Z,100615.19
2017-10-03T03:36:51.314Z,100610.00
2017-10-03T03:39:26.194Z,100608.25
2017-10-03T03:42:00.977Z,100610.03
2017-10-03T03:44:35.717Z,100608.39
2017-10-03T03:47:10.434Z,100614.08
2017-10-03T03:49:45.330Z,100613.90
2017-10-03T03:52:20.062Z,100612.59
2017-10-03T03:54:54.758Z,100609.99
2017-10-03T03:57:29.646Z,100610.24
2017-10-03T04:00:04.066Z,100608.05
2017-10-03T04:02:39.139Z,100606.70
2017-10-03T04:05:14.661Z,100611.30
2017-10-03T04:07:49.686Z,100608.88
2017-10-03T04:10:24.519Z,100611.77
2017-10-03T04:12:59.341Z,100620.78
2017-10-03T04:15:34.234Z,100623.25
2017-10-03T04:18:08.662Z,100619.25
2017-10-03T04:20:43.758Z,100625.34
2017-10-03T04:23:18.714Z,100630.90
2017-10-03T04:25:53.536Z,100628.17
2017-10-03T04:28:28.333Z,100630.76
2017-10-03T04:31:03.482Z,100628.66
2017-10-03T04:33:38.619Z,100632.16
2017-10-03T04:36:13.465Z,100632.44
2017-10-03T04:38:48.150Z,100632.89
2017-10-03T04:41:22.897Z,100636.20
2017-10-03T04:43:58.158Z,100640.00
2017-10-03T04:46:32.910Z,100639.48
2017-10-03T04:49:07.686Z,100648.31
2017-10-03T04:51:42.431Z,100654.50
2017-10-03T04:54:17.257Z,100650.30
2017-10-03T04:56:52.027Z,100648.80
2017-10-03T04:59:26.850Z,100643.38
2017-10-03T05:02:01.698Z,100650.73
2017-10-03T05:04:36.752Z,100651.64
2017-10-03T05:07:11.857Z,100656.56
2017-10-03T05:09:46.685Z,100660.64
2017-10-03T05:12:21.514Z,100658.22
2017-10-03T05:14:56.541Z,100663.63
2017-10-03T05:17:31.358Z,100665.66
2017-10-03T05:20:06.311Z,100667.87
2017-10-03T05:22:41.781Z,100678.23
2017-10-03T05:25:16.281Z,100676.97
2017-10-03T05:27:51.313Z,100680.98
2017-10-03T05:30:26.342Z,100684.96
2017-10-03T05:33:01.413Z,100688.66
2017-10-03T05:35:36.332Z,100697.80
2017-10-03T05:38:11.471Z,100693.50
2017-10-03T05:40:45.901Z,100698.51
2017-10-03T05:43:20.701Z,100702.78
2017-10-03T05:45:55.657Z,100709.15
2017-10-03T05:48:30.457Z,100716.69
2017-10-03T05:51:05.342Z,100714.24
2017-10-03T05:53:40.194Z,100708.34
2017-10-03T05:56:14.977Z,100717.56
2017-10-03T05:58:49.998Z,100720.17
2017-10-03T06:01:24.853Z,100713.21
2017-10-03T06:03:59.945Z,100728.14
2017-10-03T06:06:35.014Z,100722.41
2017-10-03T06:09:10.032Z,100729.89
2017-10-03T06:11:44.877Z,100722.41
2017-10-03T06:14:19.770Z,100733.62
2017-10-03T06:16:54.873Z,100739.59
2017-10-03T06:19:29.243Z,100737.59
2017-10-03T06:22:04.085Z,100737.26
2017-10-03T06:24:38.980Z,100749.08
2017-10-03T06:27:13.609Z,100750.16
2017-10-03T06:29:48.298Z,100759.45
2017-10-03T06:32:22.993Z,100757.42
2017-10-03T06:34:58.317Z,100763.09
2017-10-03T06:37:33.684Z,100768.63
2017-10-03T06:40:08.433Z,100772.65
2017-10-03T06:42:42.949Z,100772.02
2017-10-03T06:45:18.189Z,100779.29
2017-10-03T06:47:52.962Z,100777.91
2017-10-03T06:50:27.869Z,100793.12
2017-10-03T06:53:02.769Z,100796.41
2017-10-03T06:55:38.537Z,100793.45
2017-10-03T06:58:13.350Z,100800.58
2017-10-03T07:00:48.282Z,100799.75
2017-10-03T07:03:23.169Z,100804.98
2017-10-03T07:05:58.293Z,100812.48
2017-10-03T07:08:32.945Z,100817.53
2017-10-03T07:11:07.829Z,100827.37
2017-10-03T07:13:42.569Z,100820.25
2017-10-03T07:16:17.422Z,100823.23
2017-10-03T07:18:52.406Z,100826.87
2017-10-03T07:21:27.282Z,100831.84
2017-10-03T07:24:02.001Z,100829.80
2017-10-03T07:26:37.170Z,100849.10
2017-10-03T07:29:12.041Z,100850.05
2017-10-03T07:31:46.742Z,100855.68
2017-10-03T07:34:21.402Z,100869.44
2017-10-03T07:36:56.206Z,100860.98
2017-10-03T07:39:30.982Z,100875.03
2017-10-03T07:42:05.805Z,100874.56
2017-10-03T07:44:40.742Z,100874.41
2017-10-03T07:47:15.623Z,100877.19
2017-10-03T07:49:50.273Z,100882.94
2017-10-03T07:52:24.751Z,100891.67
2017-10-03T07:54:59.849Z,100884.09
2017-10-03T07:57:34.517Z,100895.69
2017-10-03T08:00:08.989Z,100894.22
2017-10-03T08:02:44.045Z,100897.28
2017-10-03T08:05:18.821Z,100897.33
2017-10-03T08:07:53.681Z,100897.19
2017-10-03T08:10:28.245Z,100903.39
2017-10-03T08:13:02.774Z,100899.16
2017-10-03T08:15:37.632Z,100908.09
2017-10-03T08:18:12.489Z,100925.29
2017-10-03T08:20:48.029Z,100916.80
2017-10-03T08:23:23.021Z,100926.52
2017-10-03T08:25:57.853Z,100927.22
2017-10-03T08:28:32.586Z,100925.84
2017-10-03T08:31:07.377Z,100936.27
2017-10-03T08:33:42.317Z,100940.34
2017-10-03T08:36:17.049Z,100948.05
2017-10-03T08:38:51.796Z,100956.38
2017-10-03T08:41:26.654Z,100960.70
2017-10-03T08:44:01.526Z,100960.70
2017-10-03T08:46:36.578Z,100960.39
2017-10-03T08:49:11.318Z,100962.63
2017-10-03T08:51:46.134Z,100974.31
2017-10-03T08:54:20.870Z,100972.80
2017-10-03T08:56:55.897Z,100982.05
2017-10-03T08:59:30.589Z,100979.34
2017-10-03T09:02:05.545Z,100990.67
2017-10-03T09:04:40.205Z,100985.75
2017-10-03T09:07:14.953Z,100987.27
2017-10-03T09:09:49.833Z,100985.80
2017-10-03T09:12:24.473Z,100992.06
2017-10-03T09:14:58.949Z,100997.66
2017-10-03T09:17:33.998Z,101000.23
2017-10-03T09:20:08.489Z,101004.17
2017-10-03T09:22:43.285Z,101001.12
2017-10-03T09:25:17.921Z,100995.92
2017-10-03T09:27:52.766Z,101006.09
2017-10-03T09:30:27.562Z,101012.73
2017-10-03T09:33:02.401Z,101010.55
2017-10-03T09:35:36.968Z,101009.90
2017-10-03T09:38:11.869Z,101016.57
2017-10-03T09:40:46.605Z,101011.59
2017-10-03T09:43:21.441Z,101016.49
2017-10-03T09:45:56.065Z,101021.47
2017-10-03T09:48:30.697Z,101026.20
2017-10-03T09:51:05.285Z,101029.84
2017-10-03T09:53:40.266Z,101031.04
2017-10-03T09:56:15.294Z,101044.45
2017-10-03T09:58:50.097Z,101043.33
2017-10-03T10:01:24.857Z,101045.57
2017-10-03T10:03:59.582Z,101044.91
2017-10-03T10:06:34.396Z,101051.20
2017-10-03T10:09:09.262Z,101052.63
2017-10-03T10:11:44.142Z,101053.06
2017-10-03T10:14:19.021Z,101062.09
2017-10-03T10:16:53.702Z,101055.66
2017-10-03T10:19:28.554Z,101067.27
2017-10-03T10:22:03.482Z,101060.47
2017-10-03T10:24:38.358Z,101061.68
2017-10-03T10:27:12.574Z,101060.15
2017-10-03T10:29:47.365Z,101070.95
2017-10-03T10:32:22.073Z,101073.20
2017-10-03T10:34:56.857Z,101073.01
2017-10-03T10:37:31.825Z,101096.28
2017-10-03T10:40:06.768Z,101093.79
2017-10-03T10:42:41.786Z,101100.36
2017-10-03T10:45:16.886Z,101088.98
2017-10-03T10:47:51.350Z,101086.19
2017-10-03T10:50:26.394Z,101086.28
2017-10-03T10:53:01.076Z,101089.67
2017-10-03T10:55:36.267Z,101090.17
2017-10-03T10:58:11.178Z,101099.80
2017-10-03T11:00:46.195Z,101096.27
2017-10-03T11:03:21.129Z,101102.05
2017-10-03T11:05:56.102Z,101101.17
2017-10-03T11:08:31.264Z,101102.23
2017-10-03T11:11:07.007Z,101103.01
2017-10-03T11:13:42.157Z,101105.16
2017-10-03T11:16:16.953Z,101112.00
2017-10-03T11:18:51.768Z,101106.06
2017-10-03T11:21:26.631Z,101122.58
2017-10-03T11:24:12.497Z,101125.88
2017-10-03T11:26:47.062Z,101130.88
2017-10-03T11:29:21.822Z,101129.41
2017-10-03T11:31:56.777Z,101117.81
2017-10-03T11:34:31.672Z,101124.05
2017-10-03T11:37:06.767Z,101122.73
2017-10-03T11:39:41.442Z,101129.25
2017-10-03T11:42:16.386Z,101132.06
2017-10-03T11:45:00.269Z,101128.49
2017-10-03T11:47:34.734Z,101130.14
2017-10-03T11:50:09.777Z,101140.42
2017-10-03T11:52:44.609Z,101137.76
2017-10-03T11:55:19.426Z,101139.77
2017-10-03T11:57:54.177Z,101148.30
2017-10-03T12:00:29.174Z,101151.25
2017-10-03T12:03:04.224Z,101157.44
2017-10-03T12:05:39.381Z,101154.67
2017-10-03T12:08:14.275Z,101156.38
2017-10-03T12:10:48.965Z,101157.56
2017-10-03T12:13:23.849Z,101154.44
2017-10-03T12:15:58.657Z,101152.81
2017-10-03T12:18:33.626Z,101162.09
2017-10-03T12:21:08.482Z,101156.84
2017-10-03T12:23:43.687Z,101170.89
2017-10-03T12:26:18.490Z,101173.58
2017-10-03T12:28:53.750Z,101162.85
2017-10-03T12:31:28.812Z,101174.75
2017-10-03T12:34:03.494Z,101184.16
2017-10-03T12:36:38.445Z,101187.48
2017-10-03T12:39:13.285Z,101195.05
2017-10-03T12:41:48.124Z,101190.38
2017-10-03T12:44:22.965Z,101194.10
2017-10-03T12:46:58.382Z,101193.08
2017-10-03T12:49:33.118Z,101187.62
2017-10-03T12:52:08.117Z,101206.75
2017-10-03T12:54:42.871Z,101202.11
2017-10-03T12:57:17.749Z,101223.39
2017-10-03T12:59:52.529Z,101229.69
2017-10-03T13:02:27.286Z,101224.83
2017-10-03T13:05:01.846Z,101224.31
2017-10-03T13:07:36.609Z,101221.88
2017-10-03T13:10:11.370Z,101218.72
2017-10-03T13:12:46.238Z,101224.84
2017-10-03T13:15:21.505Z,101224.94
2017-10-03T13:17:56.482Z,101218.05
2017-10-03T13:20:31.296Z,101206.10
2017-10-03T13:23:06.109Z,101221.66
2017-10-03T13:25:40.967Z,101216.08
2017-10-03T13:28:15.790Z,101214.20
2017-10-03T13:30:50.648Z,101216.37
2017-10-03T13:33:25.474Z,101214.48
2017-10-03T13:36:00.361Z,101216.23
2017-10-03T13:38:35.107Z,101216.56
2017-10-03T13:41:09.889Z,101217.40
2017-10-03T13:43:44.613Z,101224.06
2017-10-03T13:46:19.593Z,101227.80
2017-10-03T13:48:54.567Z,101235.96
2017-10-03T13:51:29.354Z,101240.34
2017-10-03T13:54:04.205Z,101252.45
2017-10-03T13:56:39.174Z,101262.80
2017-10-03T13:59:13.876Z,101266.54
2017-10-03T14:01:48.885Z,101270.90
2017-10-03T14:04:23.765Z,101279.54
2017-10-03T14:06:58.573Z,101287.73
2017-10-03T14:09:33.232Z,101299.54
2017-10-03T14:12:07.777Z,101317.06
2017-10-03T14:14:42.527Z,101328.23
2017-10-03T14:17:17.374Z,101339.46
2017-10-03T14:19:52.250Z,101343.72
2017-10-03T14:22:28.285Z,101338.34
2017-10-03T14:25:02.999Z,101334.16
2017-10-03T14:27:37.842Z,101341.22
2017-10-03T14:30:12.646Z,101341.27
2017-10-03T14:32:47.342Z,101334.16
2017-10-03T14:35:21.998Z,101334.81
2017-10-03T14:37:56.821Z,101322.99
2017-10-03T14:40:31.501Z,101330.14
2017-10-03T14:43:06.573Z,101338.09
2017-10-03T14:45:40.861Z,101335.11
2017-10-03T14:48:15.941Z,101334.87
2017-10-03T14:50:50.564Z,101337.81
2017-10-03T14:53:25.365Z,101344.11
2017-10-03T14:56:00.249Z,101345.41
2017-10-03T14:58:34.997Z,101355.47
2017-10-03T15:01:09.653Z,101344.78
2017-10-03T15:03:44.380Z,101350.69
2017-10-03T15:06:19.905Z,101349.11
2017-10-03T15:08:54.719Z,101368.56
2017-10-03T15:11:29.817Z,101366.92
2017-10-03T15:14:05.733Z,101378.28
2017-10-03T15:16:40.441Z,101391.97
2017-10-03T15:19:15.234Z,101375.64
2017-10-03T15:21:49.791Z,101379.92
2017-10-03T15:24:24.621Z,101387.55
2017-10-03T15:26:59.498Z,101400.61
2017-10-03T15:29:34.298Z,101402.80
2017-10-03T15:32:09.298Z,101393.73
2017-10-03T15:34:44.256Z,101396.45
2017-10-03T15:37:19.109Z,101397.67
2017-10-03T15:39:53.706Z,101392.70
2017-10-03T15:42:28.437Z,101403.27
2017-10-03T15:45:04.075Z,101399.02
2017-10-03T15:47:38.717Z,101395.84
2017-10-03T15:50:13.545Z,101409.80
2017-10-03T15:52:48.358Z,101409.39
2017-10-03T15:55:23.106Z,101416.70
2017-10-03T15:57:58.037Z,101425.81
2017-10-03T16:00:32.761Z,101417.14
2017-10-03T16:03:07.663Z,101414.81
2017-10-03T16:05:42.214Z,101426.69
2017-10-03T16:08:17.079Z,101419.73
2017-10-03T16:10:51.821Z,101421.56
2017-10-03T16:13:26.628Z,101432.50
2017-10-03T16:16:01.488Z,101430.59
2017-10-03T16:18:36.458Z,101423.74
2017-10-03T16:21:11.285Z,101429.19
2017-10-03T16:23:45.966Z,101432.36
2017-10-03T16:26:20.813Z,101431.02
2017-10-03T16:28:55.445Z,101433.13
2017-10-03T16:31:30.225Z,101439.59
2017-10-03T16:34:05.035Z,101438.00
2017-10-03T16:36:39.812Z,101439.42
2017-10-03T16:39:14.833Z,101451.50
2017-10-03T16:41:49.785Z,101442.76
2017-10-03T16:44:24.677Z,101451.04
2017-10-03T16:46:59.417Z,101455.28
2017-10-03T16:49:34.305Z,101463.84
2017-10-03T16:52:09.209Z,101455.83
2017-10-03T16:54:44.025Z,101464.63
2017-10-03T16:57:18.865Z,101458.98
2017-10-03T16:59:53.705Z,101466.67
2017-10-03T17:02:28.516Z,101471.13
2017-10-03T17:05:03.053Z,101475.58
2017-10-03T17:07:37.758Z,101475.95
2017-10-03T17:10:12.682Z,101482.13
2017-10-03T17:12:47.406Z,101487.84
2017-10-03T17:15:22.279Z,101485.16
2017-10-03T17:17:57.009Z,101487.05
2017-10-03T17:20:31.715Z,101486.75
2017-10-03T17:23:06.358Z,101491.42
2017-10-03T17:25:41.298Z,101495.31
2017-10-03T17:28:16.101Z,101496.44
2017-10-03T17:30:50.938Z,101505.92
2017-10-03T17:33:25.564Z,101501.71
2017-10-03T17:36:00.437Z,101504.24
2017-10-03T17:38:35.073Z,101507.19
2017-10-03T17:41:09.953Z,101512.58
2017-10-03T17:43:44.934Z,101520.51
2017-10-03T17:46:19.462Z,101517.11
2017-10-03T17:48:54.330Z,101520.69
2017-10-03T17:51:29.094Z,101523.03
2017-10-03T17:54:03.973Z,101520.98
2017-10-03T17:56:38.950Z,101523.00
2017-10-03T17:59:13.789Z,101529.03
2017-10-03T18:01:48.693Z,101531.63
2017-10-03T18:04:23.457Z,101532.09
2017-10-03T18:06:58.153Z,101537.02
2017-10-03T18:09:33.318Z,101534.22
2017-10-03T18:12:08.146Z,101545.11
2017-10-03T18:14:42.986Z,101546.78
2017-10-03T18:17:17.637Z,101551.20
2017-10-03T18:19:52.206Z,101555.50
2017-10-03T18:22:28.516Z,101561.42
2017-10-03T18:25:03.086Z,101566.11
2017-10-03T18:27:37.814Z,101575.40
2017-10-03T18:30:12.846Z,101576.00
2017-10-03T18:32:47.829Z,101574.96
2017-10-03T18:35:22.397Z,101577.23
2017-10-03T18:37:57.257Z,101582.35
2017-10-03T18:40:32.125Z,101588.14
2017-10-03T18:43:07.621Z,101590.56
2017-10-03T18:45:43.013Z,101601.34
2017-10-03T18:48:17.762Z,101600.28
2017-10-03T18:50:52.580Z,101601.25
2017-10-03T18:53:27.234Z,101605.20
2017-10-03T18:56:02.053Z,101604.81
2017-10-03T18:58:37.172Z,101612.94
2017-10-03T19:01:11.762Z,101607.02
2017-10-03T19:03:46.809Z,101604.83
2017-10-03T19:06:21.607Z,101611.59
2017-10-03T19:08:56.305Z,101608.66
2017-10-03T19:11:31.079Z,101609.42
2017-10-03T19:14:06.133Z,101608.34
2017-10-03T19:16:41.341Z,101610.66
2017-10-03T19:19:16.309Z,101616.41
2017-10-03T19:21:51.149Z,101611.07
2017-10-03T19:24:26.293Z,101617.23
2017-10-03T19:27:01.065Z,101611.01
2017-10-03T19:29:36.922Z,101624.00
2017-10-03T19:32:12.069Z,101618.45
2017-10-03T19:34:47.039Z,101620.86
2017-10-03T19:37:22.084Z,101620.84
2017-10-03T19:39:57.158Z,101618.98
2017-10-03T19:42:32.213Z,101620.27
2017-10-03T19:45:06.982Z,101633.34
2017-10-03T19:47:42.150Z,101636.75
2017-10-03T19:50:17.233Z,101644.02
2017-10-03T19:52:52.078Z,101641.63
2017-10-03T19:55:27.272Z,101642.98
2017-10-03T19:58:02.282Z,101653.09
2017-10-03T20:00:37.077Z,101658.43
2017-10-03T20:03:11.785Z,101656.75
2017-10-03T20:05:47.357Z,101656.87
2017-10-03T20:08:22.430Z,101652.64
2017-10-03T20:10:56.937Z,101649.73
2017-10-03T20:13:31.958Z,101660.22
2017-10-03T20:16:06.674Z,101656.48
2017-10-03T20:18:41.185Z,101659.78
2017-10-03T20:21:15.937Z,101664.09
2017-10-03T20:23:50.765Z,101660.34
2017-10-03T20:26:25.620Z,101663.33
2017-10-03T20:29:00.293Z,101670.98
2017-10-03T20:31:35.253Z,101674.91
2017-10-03T20:34:10.206Z,101678.50
2017-10-03T20:36:44.998Z,101676.12
2017-10-03T20:39:19.549Z,101681.08
2017-10-03T20:41:54.298Z,101679.99
2017-10-03T20:44:29.134Z,101686.48
2017-10-03T20:47:04.023Z,101686.09
2017-10-03T20:49:38.761Z,101677.13
2017-10-03T20:52:14.465Z,101677.34
2017-10-03T20:54:49.542Z,101676.16
2017-10-03T20:57:29.760Z,101669.94
2017-10-03T21:00:05.235Z,101672.96
2017-10-03T21:02:43.760Z,101666.00
2017-10-03T21:05:18.475Z,101670.37
2017-10-03T21:07:53.551Z,101665.22
2017-10-03T21:10:28.726Z,101661.11
2017-10-03T21:13:03.814Z,101657.23
2017-10-03T21:15:38.806Z,101657.32
2017-10-03T21:18:13.548Z,101655.77
2017-10-03T21:20:48.298Z,101651.93
2017-10-03T21:23:23.380Z,101652.88
2017-10-03T21:25:58.398Z,101656.55
2017-10-03T21:28:33.189Z,101653.90
2017-10-03T21:31:07.958Z,101649.73
2017-10-03T21:33:42.778Z,101654.11
2017-10-03T21:36:17.069Z,101653.52
2017-10-03T21:38:52.286Z,101647.17
2017-10-03T21:41:26.799Z,101647.79
2017-10-03T21:44:01.938Z,101649.41
2017-10-03T21:46:36.498Z,101645.23
2017-10-03T21:49:11.161Z,101640.39
2017-10-03T21:51:46.177Z,101645.28
2017-10-03T21:54:22.342Z,101661.16
2017-10-03T21:56:57.038Z,101658.09
2017-10-03T21:59:31.905Z,101667.20
2017-10-03T22:02:06.634Z,101660.34
2017-10-03T22:04:41.601Z,101656.73
2017-10-03T22:07:16.421Z,101651.89
2017-10-03T22:09:51.021Z,101666.30
2017-10-03T22:12:25.962Z,101674.84
2017-10-03T22:15:01.328Z,101677.87
2017-10-03T22:17:47.644Z,101672.50
2017-10-03T22:20:23.050Z,101672.88
2017-10-03T22:23:00.530Z,101679.38
2017-10-03T22:25:36.273Z,101664.38
2017-10-03T22:28:10.925Z,101663.89
2017-10-03T22:30:45.876Z,101649.30
2017-10-03T22:33:21.026Z,101653.80
2017-10-03T22:35:55.863Z,101662.98
2017-10-03T22:38:30.737Z,101663.56
2017-10-03T22:41:06.051Z,101658.92
2017-10-03T22:43:41.811Z,101667.03
2017-10-03T22:46:16.662Z,101674.48
2017-10-03T22:48:51.688Z,101677.91
2017-10-03T22:54:31.861Z,101668.44
2017-10-03T22:57:06.655Z,101665.28
2017-10-03T22:59:41.202Z,101654.30
2017-10-03T23:02:15.954Z,101656.81
2017-10-03T23:04:51.197Z,101654.75
2017-10-03T23:07:26.439Z,101651.84
2017-10-03T23:10:01.062Z,101659.77
2017-10-03T23:12:35.721Z,101661.02
2017-10-03T23:15:10.745Z,101659.94
2017-10-03T23:17:46.457Z,101657.33
2017-10-03T23:20:21.063Z,101657.96
2017-10-03T23:22:55.745Z,101660.16
2017-10-03T23:25:30.398Z,101665.69
2017-10-03T23:28:06.201Z,101665.94
2017-10-03T23:30:40.851Z,101660.02
2017-10-03T23:33:15.669Z,101663.69
2017-10-03T23:35:50.273Z,101664.22
2017-10-03T23:38:24.978Z,101661.78
2017-10-03T23:40:59.791Z,101660.69
2017-10-03T23:43:34.590Z,101656.49
2017-10-03T23:46:09.189Z,101650.27
2017-10-03T23:48:43.736Z,101646.51
2017-10-03T23:51:18.561Z,101640.43
2017-10-03T23:53:53.109Z,101650.64
2017-10-03T23:56:27.725Z,101644.54
2017-10-03T23:59:02.458Z,101641.56
